• Join FlightAware (Why Join?)
  • Login
  • US Flag 
05:10AM EDT


 

Airport Tracker/Info


-or-


 

Live Flight TrackerFlight Track Log ✈ EMD26 ✈ 23-Jun-2013 ✈ KCPS - KPOF

Flight Track Log - Related Links

Times and Time Zones

All times are in EDT time to prevent confusion due to time zone crossing. See the EMD26 flight status page for this flight to view local times or setup timezone preferences in your user account.

Time Position Orientation Groundspeed Altitude Reporting Facility
EDT Latitude Longitude Course Direction KTS MPH feet Rate Location/Type
05:04AM 38.5500 -90.1167 114° Southeast 129 148 1,900  Level Gateway (St. Louis) TRACON
05:04AM 38.5397 -90.0872 114° Southeast 129 148 2,700 1,200 Climbing Kansas City Center
05:05AM 38.5064 -90.0794 170° South 124 143 3,900 1,140 Climbing Kansas City Center
05:06AM 38.4706 -90.0750 174° South 126 145 5,100 1,200 Climbing Kansas City Center
05:07AM 38.4344 -90.0842 191° South 129 148 6,400 1,200 Climbing Kansas City Center
05:08AM 38.3969 -90.0983 196° South 134 154 7,600 1,080 Climbing Kansas City Center
05:09AM 38.3536 -90.0989 181° South 151 174 8,600 960 Climbing Kansas City Center
05:10AM 38.3086 -90.0992 180° South 160 184 9,600 660 Climbing Kansas City Center
05:11AM 38.2617 -90.1106 191° South 167 192 10,000 180 Climbing Kansas City Center
05:12AM 38.2025 -90.1225 189° South 202 232 10,000  Level Kansas City Center
05:13AM 38.1408 -90.1267 183° South 218 251 10,000  Level Kansas City Center
05:14AM 38.0794 -90.1336 185° South 220 253 10,000  Level Kansas City Center
05:15AM 38.0186 -90.1481 191° South 222 255 10,000  Level Kansas City Center
05:16AM 37.9572 -90.1556 186° South 223 257 10,000  Level Kansas City Center
05:17AM 37.8961 -90.1597 183° South 222 255 10,000  Level Kansas City Center
05:19AM 37.8384 -90.1665 185° South  Level FlightAware Approximate
05:19AM 37.7758 -90.1878 185° South 222 255 10,000  Level Kansas City Center
05:20AM 37.7158 -90.1914 183° South 218 251 10,000  Level Kansas City Center
05:22AM 37.6558 -90.2014 188° South 216 249 10,000  Level Kansas City Center
05:23AM 37.5969 -90.2122 188° South 216 249 10,000  Level Kansas City Center
05:24AM 37.5372 -90.2194 185° South 217 250 10,000  Level Kansas City Center
05:25AM 37.4775 -90.2253 184° South 216 249 10,000 -240 Level Kansas City Center
05:26AM 37.4172 -90.2358 188° South 217 250 9,600 -600 Descending Kansas City Center
05:27AM 37.3494 -90.2447 186° South 238 274 8,800 -780 Descending Kansas City Center
05:28AM 37.2786 -90.2542 186° South 239 275 8,100 -960 Descending Kansas City Center
05:29AM 37.2128 -90.2678 189° South 239 275 6,900 -1,080 Descending Kansas City Center
05:30AM 37.1472 -90.2767 186° South 239 275 6,000 -1,140 Descending Kansas City Center
05:31AM 37.0844 -90.2842 185° South 230 265 4,700 -1,080 Descending Kansas City Center
05:32AM 37.0236 -90.2917 186° South 225 259 3,900 -840 Descending Kansas City Center
05:33AM 36.9647 -90.2986 185° South 219 252 3,100 -480 Descending Kansas City Center
05:34AM 36.9075 -90.3083 188° South 214 246 3,000 -120 Descending Kansas City Center
05:34AM 36.8589 -90.3258 196° South 208 239 2,900 -420 Descending Memphis Center
05:35AM 36.8172 -90.3258 180° South 194 223 2,300 -720 Descending Memphis Center
05:36AM 36.7797 -90.3311 186° South 156 180 1,500 -840 Descending Memphis Center